sensor_id;sensor_type;location;lat;lon;timestamp;P1;durP1;ratioP1;P2;durP2;ratioP2
11425;SDS011;5769;47.998;7.788;2023-07-20T00:02:04;54.50;;;49.05;;
11425;SDS011;5769;47.998;7.788;2023-07-20T00:04:33;54.33;;;48.78;;
11425;SDS011;5769;47.998;7.788;2023-07-20T00:06:59;53.67;;;48.22;;
11425;SDS011;5769;47.998;7.788;2023-07-20T00:09:26;52.70;;;47.25;;
11425;SDS011;5769;47.998;7.788;2023-07-20T00:11:53;54.30;;;48.78;;
11425;SDS011;5769;47.998;7.788;2023-07-20T00:14:21;54.35;;;48.80;;
11425;SDS011;5769;47.998;7.788;2023-07-20T00:16:49;55.10;;;49.55;;
11425;SDS011;5769;47.998;7.788;2023-07-20T00:19:20;53.38;;;47.92;;
11425;SDS011;5769;47.998;7.788;2023-07-20T00:21:47;53.28;;;47.90;;
11425;SDS011;5769;47.998;7.788;2023-07-20T00:24:14;53.45;;;48.00;;
11425;SDS011;5769;47.998;7.788;2023-07-20T00:26:41;52.92;;;47.47;;
11425;SDS011;5769;47.998;7.788;2023-07-20T00:29:07;53.45;;;47.97;;
11425;SDS011;5769;47.998;7.788;2023-07-20T00:31:36;53.55;;;48.15;;
11425;SDS011;5769;47.998;7.788;2023-07-20T00:34:02;51.55;;;46.30;;
11425;SDS011;5769;47.998;7.788;2023-07-20T00:36:29;51.58;;;46.22;;
11425;SDS011;5769;47.998;7.788;2023-07-20T00:38:56;52.67;;;47.25;;
11425;SDS011;5769;47.998;7.788;2023-07-20T00:41:23;53.85;;;48.28;;
11425;SDS011;5769;47.998;7.788;2023-07-20T00:43:49;53.45;;;48.03;;
11425;SDS011;5769;47.998;7.788;2023-07-20T00:46:16;53.30;;;47.95;;
11425;SDS011;5769;47.998;7.788;2023-07-20T00:48:44;54.78;;;49.25;;
11425;SDS011;5769;47.998;7.788;2023-07-20T00:51:11;52.72;;;47.28;;
11425;SDS011;5769;47.998;7.788;2023-07-20T00:53:37;52.90;;;47.47;;
11425;SDS011;5769;47.998;7.788;2023-07-20T00:56:04;53.17;;;47.83;;
11425;SDS011;5769;47.998;7.788;2023-07-20T00:58:33;53.88;;;48.40;;
11425;SDS011;5769;47.998;7.788;2023-07-20T01:01:00;53.08;;;47.58;;
11425;SDS011;5769;47.998;7.788;2023-07-20T01:03:26;54.33;;;48.83;;
11425;SDS011;5769;47.998;7.788;2023-07-20T01:06:00;52.42;;;47.05;;
11425;SDS011;5769;47.998;7.788;2023-07-20T01:08:36;54.38;;;48.90;;
11425;SDS011;5769;47.998;7.788;2023-07-20T01:11:10;51.80;;;46.50;;
11425;SDS011;5769;47.998;7.788;2023-07-20T01:13:42;53.58;;;48.05;;
11425;SDS011;5769;47.998;7.788;2023-07-20T01:16:10;53.17;;;47.65;;
11425;SDS011;5769;47.998;7.788;2023-07-20T01:18:36;54.72;;;49.15;;
11425;SDS011;5769;47.998;7.788;2023-07-20T01:21:07;52.90;;;47.53;;
11425;SDS011;5769;47.998;7.788;2023-07-20T01:23:44;53.38;;;47.83;;
11425;SDS011;5769;47.998;7.788;2023-07-20T01:26:48;52.53;;;47.15;;
11425;SDS011;5769;47.998;7.788;2023-07-20T01:29:34;53.13;;;47.67;;
11425;SDS011;5769;47.998;7.788;2023-07-20T01:32:23;54.13;;;48.67;;
11425;SDS011;5769;47.998;7.788;2023-07-20T01:34:51;53.28;;;47.72;;
11425;SDS011;5769;47.998;7.788;2023-07-20T01:37:20;53.88;;;48.42;;
11425;SDS011;5769;47.998;7.788;2023-07-20T01:39:50;54.40;;;48.83;;
11425;SDS011;5769;47.998;7.788;2023-07-20T01:42:20;54.67;;;49.13;;
11425;SDS011;5769;47.998;7.788;2023-07-20T01:44:47;54.45;;;48.90;;
11425;SDS011;5769;47.998;7.788;2023-07-20T01:47:14;53.00;;;47.58;;
11425;SDS011;5769;47.998;7.788;2023-07-20T01:49:42;54.45;;;48.90;;
11425;SDS011;5769;47.998;7.788;2023-07-20T01:52:08;52.45;;;47.03;;
11425;SDS011;5769;47.998;7.788;2023-07-20T01:54:35;53.22;;;47.70;;
11425;SDS011;5769;47.998;7.788;2023-07-20T01:57:02;53.05;;;47.58;;
11425;SDS011;5769;47.998;7.788;2023-07-20T01:59:29;54.70;;;49.00;;
11425;SDS011;5769;47.998;7.788;2023-07-20T02:01:56;54.78;;;49.17;;
11425;SDS011;5769;47.998;7.788;2023-07-20T02:04:23;53.80;;;48.25;;
11425;SDS011;5769;47.998;7.788;2023-07-20T02:06:51;53.63;;;48.03;;
11425;SDS011;5769;47.998;7.788;2023-07-20T02:09:17;53.03;;;47.58;;
11425;SDS011;5769;47.998;7.788;2023-07-20T02:11:45;52.47;;;47.08;;
11425;SDS011;5769;47.998;7.788;2023-07-20T02:14:11;54.55;;;49.03;;
11425;SDS011;5769;47.998;7.788;2023-07-20T02:16:38;53.42;;;47.95;;
11425;SDS011;5769;47.998;7.788;2023-07-20T02:19:04;52.88;;;47.38;;
11425;SDS011;5769;47.998;7.788;2023-07-20T02:21:32;53.80;;;48.30;;
11425;SDS011;5769;47.998;7.788;2023-07-20T02:24:00;54.72;;;49.17;;
11425;SDS011;5769;47.998;7.788;2023-07-20T02:26:27;53.65;;;48.13;;
11425;SDS011;5769;47.998;7.788;2023-07-20T02:28:53;55.00;;;49.45;;
11425;SDS011;5769;47.998;7.788;2023-07-20T02:31:20;52.53;;;47.17;;
11425;SDS011;5769;47.998;7.788;2023-07-20T02:33:47;53.15;;;47.63;;
11425;SDS011;5769;47.998;7.788;2023-07-20T02:36:13;53.15;;;47.70;;
11425;SDS011;5769;47.998;7.788;2023-07-20T02:38:41;53.25;;;47.78;;
11425;SDS011;5769;47.998;7.788;2023-07-20T02:41:10;53.13;;;47.78;;
11425;SDS011;5769;47.998;7.788;2023-07-20T02:43:36;54.00;;;48.50;;
11425;SDS011;5769;47.998;7.788;2023-07-20T02:46:03;53.72;;;48.28;;
11425;SDS011;5769;47.998;7.788;2023-07-20T02:48:30;54.67;;;49.15;;
11425;SDS011;5769;47.998;7.788;2023-07-20T02:50:56;52.30;;;46.92;;
11425;SDS011;5769;47.998;7.788;2023-07-20T02:53:23;54.50;;;49.08;;
11425;SDS011;5769;47.998;7.788;2023-07-20T02:55:49;53.63;;;48.25;;
11425;SDS011;5769;47.998;7.788;2023-07-20T02:58:17;53.45;;;48.00;;
11425;SDS011;5769;47.998;7.788;2023-07-20T03:00:44;52.05;;;46.67;;
11425;SDS011;5769;47.998;7.788;2023-07-20T03:03:11;53.15;;;47.70;;
11425;SDS011;5769;47.998;7.788;2023-07-20T03:05:40;53.05;;;47.60;;
11425;SDS011;5769;47.998;7.788;2023-07-20T03:08:07;51.80;;;46.50;;
11425;SDS011;5769;47.998;7.788;2023-07-20T03:10:38;53.13;;;47.75;;
11425;SDS011;5769;47.998;7.788;2023-07-20T03:13:05;54.33;;;48.78;;
11425;SDS011;5769;47.998;7.788;2023-07-20T03:15:33;52.80;;;47.45;;
11425;SDS011;5769;47.998;7.788;2023-07-20T03:18:00;52.83;;;47.40;;
11425;SDS011;5769;47.998;7.788;2023-07-20T03:20:27;53.67;;;48.25;;
11425;SDS011;5769;47.998;7.788;2023-07-20T03:22:54;53.10;;;47.65;;
11425;SDS011;5769;47.998;7.788;2023-07-20T03:25:21;51.95;;;46.53;;
11425;SDS011;5769;47.998;7.788;2023-07-20T03:27:47;52.17;;;46.75;;
11425;SDS011;5769;47.998;7.788;2023-07-20T03:30:14;53.38;;;47.92;;
11425;SDS011;5769;47.998;7.788;2023-07-20T03:32:42;53.35;;;47.85;;
11425;SDS011;5769;47.998;7.788;2023-07-20T03:35:09;54.20;;;48.63;;
11425;SDS011;5769;47.998;7.788;2023-07-20T03:37:35;52.08;;;46.65;;
11425;SDS011;5769;47.998;7.788;2023-07-20T03:40:03;53.03;;;47.63;;
11425;SDS011;5769;47.998;7.788;2023-07-20T03:42:32;52.83;;;47.38;;
11425;SDS011;5769;47.998;7.788;2023-07-20T03:44:59;53.97;;;48.45;;
11425;SDS011;5769;47.998;7.788;2023-07-20T03:47:25;53.28;;;47.83;;
11425;SDS011;5769;47.998;7.788;2023-07-20T03:49:53;54.00;;;48.58;;
11425;SDS011;5769;47.998;7.788;2023-07-20T03:52:20;55.15;;;49.53;;
11425;SDS011;5769;47.998;7.788;2023-07-20T03:54:47;52.45;;;47.05;;
11425;SDS011;5769;47.998;7.788;2023-07-20T03:57:13;53.63;;;48.13;;
11425;SDS011;5769;47.998;7.788;2023-07-20T03:59:44;52.03;;;46.67;;
11425;SDS011;5769;47.998;7.788;2023-07-20T04:02:11;53.78;;;48.33;;
11425;SDS011;5769;47.998;7.788;2023-07-20T04:04:38;54.40;;;48.85;;
11425;SDS011;5769;47.998;7.788;2023-07-20T04:07:06;54.08;;;48.45;;
11425;SDS011;5769;47.998;7.788;2023-07-20T04:09:32;52.97;;;47.63;;
11425;SDS011;5769;47.998;7.788;2023-07-20T04:11:59;53.85;;;48.35;;
11425;SDS011;5769;47.998;7.788;2023-07-20T04:14:26;54.13;;;48.53;;
11425;SDS011;5769;47.998;7.788;2023-07-20T04:16:52;54.10;;;48.45;;
11425;SDS011;5769;47.998;7.788;2023-07-20T04:19:19;55.58;;;50.03;;
11425;SDS011;5769;47.998;7.788;2023-07-20T04:21:46;56.42;;;50.83;;
11425;SDS011;5769;47.998;7.788;2023-07-20T04:24:14;54.88;;;49.33;;
11425;SDS011;5769;47.998;7.788;2023-07-20T04:26:40;55.55;;;50.00;;
11425;SDS011;5769;47.998;7.788;2023-07-20T04:29:07;56.65;;;50.92;;
11425;SDS011;5769;47.998;7.788;2023-07-20T04:31:34;54.80;;;49.25;;
11425;SDS011;5769;47.998;7.788;2023-07-20T04:34:01;54.22;;;48.63;;
11425;SDS011;5769;47.998;7.788;2023-07-20T04:36:28;55.80;;;50.17;;
11425;SDS011;5769;47.998;7.788;2023-07-20T04:38:54;54.72;;;49.08;;
11425;SDS011;5769;47.998;7.788;2023-07-20T04:41:22;54.95;;;49.33;;
11425;SDS011;5769;47.998;7.788;2023-07-20T04:43:50;54.13;;;48.60;;
11425;SDS011;5769;47.998;7.788;2023-07-20T04:46:16;56.05;;;50.40;;
11425;SDS011;5769;47.998;7.788;2023-07-20T04:48:44;55.50;;;49.85;;
11425;SDS011;5769;47.998;7.788;2023-07-20T04:51:10;53.50;;;47.95;;
11425;SDS011;5769;47.998;7.788;2023-07-20T04:53:37;54.95;;;49.25;;
11425;SDS011;5769;47.998;7.788;2023-07-20T04:56:04;54.03;;;48.50;;
11425;SDS011;5769;47.998;7.788;2023-07-20T04:58:32;55.20;;;49.55;;
11425;SDS011;5769;47.998;7.788;2023-07-20T05:00:59;56.42;;;50.78;;
11425;SDS011;5769;47.998;7.788;2023-07-20T05:03:25;54.30;;;48.85;;
11425;SDS011;5769;47.998;7.788;2023-07-20T05:05:53;55.42;;;49.75;;
11425;SDS011;5769;47.998;7.788;2023-07-20T05:08:20;54.08;;;48.42;;
11425;SDS011;5769;47.998;7.788;2023-07-20T05:10:47;53.40;;;47.95;;
11425;SDS011;5769;47.998;7.788;2023-07-20T05:13:14;55.33;;;49.67;;
11425;SDS011;5769;47.998;7.788;2023-07-20T05:15:51;53.90;;;48.35;;
11425;SDS011;5769;47.998;7.788;2023-07-20T05:18:20;54.78;;;49.30;;
11425;SDS011;5769;47.998;7.788;2023-07-20T05:20:53;54.30;;;48.78;;
11425;SDS011;5769;47.998;7.788;2023-07-20T05:23:23;53.88;;;48.38;;
11425;SDS011;5769;47.998;7.788;2023-07-20T05:25:56;53.75;;;48.20;;
11425;SDS011;5769;47.998;7.788;2023-07-20T05:28:26;52.30;;;46.97;;
11425;SDS011;5769;47.998;7.788;2023-07-20T05:30:55;54.58;;;48.90;;
11425;SDS011;5769;47.998;7.788;2023-07-20T05:33:27;52.78;;;47.42;;
11425;SDS011;5769;47.998;7.788;2023-07-20T05:35:54;54.38;;;48.90;;
11425;SDS011;5769;47.998;7.788;2023-07-20T05:38:25;53.90;;;48.45;;
11425;SDS011;5769;47.998;7.788;2023-07-20T05:40:58;53.08;;;47.67;;
11425;SDS011;5769;47.998;7.788;2023-07-20T05:43:28;54.95;;;49.30;;
11425;SDS011;5769;47.998;7.788;2023-07-20T05:46:02;55.47;;;49.85;;
11425;SDS011;5769;47.998;7.788;2023-07-20T05:48:30;54.67;;;49.13;;
11425;SDS011;5769;47.998;7.788;2023-07-20T05:50:58;52.95;;;47.45;;
11425;SDS011;5769;47.998;7.788;2023-07-20T05:53:25;55.53;;;49.80;;
11425;SDS011;5769;47.998;7.788;2023-07-20T05:55:55;54.83;;;49.30;;
11425;SDS011;5769;47.998;7.788;2023-07-20T05:58:22;53.60;;;48.10;;
11425;SDS011;5769;47.998;7.788;2023-07-20T06:00:50;55.40;;;49.65;;
11425;SDS011;5769;47.998;7.788;2023-07-20T06:03:19;56.30;;;50.58;;
11425;SDS011;5769;47.998;7.788;2023-07-20T06:06:00;52.80;;;47.35;;
11425;SDS011;5769;47.998;7.788;2023-07-20T06:08:37;54.33;;;48.78;;
11425;SDS011;5769;47.998;7.788;2023-07-20T06:11:05;54.60;;;49.00;;
11425;SDS011;5769;47.998;7.788;2023-07-20T06:13:33;54.53;;;48.88;;
11425;SDS011;5769;47.998;7.788;2023-07-20T06:16:07;54.83;;;49.28;;
11425;SDS011;5769;47.998;7.788;2023-07-20T06:18:39;54.65;;;49.13;;
11425;SDS011;5769;47.998;7.788;2023-07-20T06:21:09;54.03;;;48.50;;
11425;SDS011;5769;47.998;7.788;2023-07-20T06:23:38;54.22;;;48.67;;
11425;SDS011;5769;47.998;7.788;2023-07-20T06:26:09;55.38;;;49.83;;
11425;SDS011;5769;47.998;7.788;2023-07-20T06:28:44;53.67;;;48.13;;
11425;SDS011;5769;47.998;7.788;2023-07-20T06:31:24;54.92;;;49.38;;
11425;SDS011;5769;47.998;7.788;2023-07-20T06:34:05;56.85;;;51.00;;
11425;SDS011;5769;47.998;7.788;2023-07-20T06:36:34;54.80;;;49.25;;
11425;SDS011;5769;47.998;7.788;2023-07-20T06:39:04;54.78;;;49.22;;
11425;SDS011;5769;47.998;7.788;2023-07-20T06:41:45;55.22;;;49.58;;
11425;SDS011;5769;47.998;7.788;2023-07-20T06:44:13;56.45;;;50.75;;
11425;SDS011;5769;47.998;7.788;2023-07-20T06:46:41;54.70;;;49.05;;
11425;SDS011;5769;47.998;7.788;2023-07-20T06:49:15;54.20;;;48.65;;
11425;SDS011;5769;47.998;7.788;2023-07-20T06:51:53;52.92;;;47.40;;
11425;SDS011;5769;47.998;7.788;2023-07-20T06:54:25;55.42;;;49.75;;
11425;SDS011;5769;47.998;7.788;2023-07-20T06:56:52;54.92;;;49.38;;
11425;SDS011;5769;47.998;7.788;2023-07-20T06:59:20;54.22;;;48.67;;
11425;SDS011;5769;47.998;7.788;2023-07-20T07:02:06;53.60;;;48.05;;
11425;SDS011;5769;47.998;7.788;2023-07-20T07:04:42;55.03;;;49.33;;
11425;SDS011;5769;47.998;7.788;2023-07-20T07:07:10;53.85;;;48.33;;
11425;SDS011;5769;47.998;7.788;2023-07-20T07:09:38;52.85;;;47.40;;
11425;SDS011;5769;47.998;7.788;2023-07-20T07:12:06;54.85;;;49.30;;
11425;SDS011;5769;47.998;7.788;2023-07-20T07:14:38;52.88;;;47.53;;
11425;SDS011;5769;47.998;7.788;2023-07-20T07:17:07;52.10;;;46.85;;
11425;SDS011;5769;47.998;7.788;2023-07-20T07:19:41;52.25;;;47.00;;
11425;SDS011;5769;47.998;7.788;2023-07-20T07:22:13;51.80;;;46.53;;
11425;SDS011;5769;47.998;7.788;2023-07-20T07:24:42;52.70;;;47.35;;
11425;SDS011;5769;47.998;7.788;2023-07-20T07:27:12;52.55;;;47.25;;
11425;SDS011;5769;47.998;7.788;2023-07-20T07:29:46;51.97;;;46.75;;
11425;SDS011;5769;47.998;7.788;2023-07-20T07:32:24;50.95;;;45.72;;
11425;SDS011;5769;47.998;7.788;2023-07-20T07:34:58;53.22;;;47.85;;
11425;SDS011;5769;47.998;7.788;2023-07-20T07:37:29;50.60;;;45.45;;
11425;SDS011;5769;47.998;7.788;2023-07-20T07:39:57;50.83;;;45.63;;
11425;SDS011;5769;47.998;7.788;2023-07-20T07:42:25;51.72;;;46.40;;
11425;SDS011;5769;47.998;7.788;2023-07-20T07:45:02;51.33;;;46.05;;
11425;SDS011;5769;47.998;7.788;2023-07-20T07:47:34;52.80;;;47.42;;
11425;SDS011;5769;47.998;7.788;2023-07-20T07:50:05;51.67;;;46.40;;
11425;SDS011;5769;47.998;7.788;2023-07-20T07:52:36;53.95;;;48.47;;
11425;SDS011;5769;47.998;7.788;2023-07-20T07:55:06;51.70;;;46.35;;
11425;SDS011;5769;47.998;7.788;2023-07-20T07:57:43;51.83;;;46.50;;
11425;SDS011;5769;47.998;7.788;2023-07-20T08:00:12;52.90;;;47.55;;
11425;SDS011;5769;47.998;7.788;2023-07-20T08:02:44;53.15;;;47.78;;
11425;SDS011;5769;47.998;7.788;2023-07-20T08:05:17;51.08;;;45.78;;
11425;SDS011;5769;47.998;7.788;2023-07-20T08:07:56;54.00;;;48.55;;
11425;SDS011;5769;47.998;7.788;2023-07-20T08:10:29;54.15;;;48.70;;
11425;SDS011;5769;47.998;7.788;2023-07-20T08:13:00;56.60;;;50.95;;
11425;SDS011;5769;47.998;7.788;2023-07-20T08:15:30;54.75;;;49.22;;
11425;SDS011;5769;47.998;7.788;2023-07-20T08:18:01;54.80;;;49.25;;
11425;SDS011;5769;47.998;7.788;2023-07-20T08:20:37;55.03;;;49.38;;
11425;SDS011;5769;47.998;7.788;2023-07-20T08:23:10;53.72;;;48.17;;
11425;SDS011;5769;47.998;7.788;2023-07-20T08:25:45;55.17;;;49.55;;
11425;SDS011;5769;47.998;7.788;2023-07-20T08:28:15;54.58;;;49.05;;
11425;SDS011;5769;47.998;7.788;2023-07-20T08:30:46;54.78;;;49.20;;
11425;SDS011;5769;47.998;7.788;2023-07-20T08:33:15;57.53;;;51.78;;
11425;SDS011;5769;47.998;7.788;2023-07-20T08:35:52;54.30;;;48.80;;
11425;SDS011;5769;47.998;7.788;2023-07-20T08:38:21;56.55;;;50.88;;
11425;SDS011;5769;47.998;7.788;2023-07-20T08:40:56;53.97;;;48.28;;
11425;SDS011;5769;47.998;7.788;2023-07-20T08:43:27;54.30;;;48.85;;
11425;SDS011;5769;47.998;7.788;2023-07-20T08:45:55;56.05;;;50.42;;
11425;SDS011;5769;47.998;7.788;2023-07-20T08:48:30;57.22;;;51.40;;
11425;SDS011;5769;47.998;7.788;2023-07-20T08:51:03;54.72;;;48.83;;
11425;SDS011;5769;47.998;7.788;2023-07-20T08:53:33;55.55;;;49.78;;
11425;SDS011;5769;47.998;7.788;2023-07-20T08:56:01;57.38;;;51.60;;
11425;SDS011;5769;47.998;7.788;2023-07-20T08:58:34;60.03;;;53.65;;
11425;SDS011;5769;47.998;7.788;2023-07-20T09:01:04;56.58;;;50.78;;
11425;SDS011;5769;47.998;7.788;2023-07-20T09:03:31;55.35;;;49.72;;
11425;SDS011;5769;47.998;7.788;2023-07-20T09:05:58;57.45;;;51.70;;
11425;SDS011;5769;47.998;7.788;2023-07-20T09:08:28;56.08;;;50.40;;
11425;SDS011;5769;47.998;7.788;2023-07-20T09:10:55;55.75;;;49.97;;
11425;SDS011;5769;47.998;7.788;2023-07-20T09:13:24;56.22;;;50.47;;
11425;SDS011;5769;47.998;7.788;2023-07-20T09:15:52;55.42;;;49.78;;
11425;SDS011;5769;47.998;7.788;2023-07-20T09:18:23;55.25;;;49.63;;
11425;SDS011;5769;47.998;7.788;2023-07-20T09:20:51;55.60;;;49.95;;
11425;SDS011;5769;47.998;7.788;2023-07-20T09:23:19;56.47;;;50.65;;
11425;SDS011;5769;47.998;7.788;2023-07-20T09:25:50;57.20;;;51.35;;
11425;SDS011;5769;47.998;7.788;2023-07-20T09:28:17;56.63;;;50.85;;
11425;SDS011;5769;47.998;7.788;2023-07-20T09:30:44;58.70;;;52.70;;
11425;SDS011;5769;47.998;7.788;2023-07-20T09:33:18;57.50;;;51.55;;
11425;SDS011;5769;47.998;7.788;2023-07-20T09:35:48;57.75;;;51.80;;
11425;SDS011;5769;47.998;7.788;2023-07-20T09:38:17;84.68;;;69.53;;
11425;SDS011;5769;47.998;7.788;2023-07-20T09:40:46;86.82;;;73.10;;
11425;SDS011;5769;47.998;7.788;2023-07-20T09:43:16;84.40;;;68.40;;
11425;SDS011;5769;47.998;7.788;2023-07-20T09:45:43;85.75;;;69.40;;
11425;SDS011;5769;47.998;7.788;2023-07-20T09:48:17;87.13;;;70.07;;
11425;SDS011;5769;47.998;7.788;2023-07-20T09:50:48;84.18;;;67.75;;
11425;SDS011;5769;47.998;7.788;2023-07-20T09:53:16;86.00;;;71.13;;
11425;SDS011;5769;47.998;7.788;2023-07-20T09:55:44;87.18;;;70.57;;
11425;SDS011;5769;47.998;7.788;2023-07-20T09:58:12;88.57;;;71.03;;
11425;SDS011;5769;47.998;7.788;2023-07-20T10:00:41;102.00;;;75.20;;
11425;SDS011;5769;47.998;7.788;2023-07-20T10:03:11;105.50;;;76.43;;
11425;SDS011;5769;47.998;7.788;2023-07-20T10:05:46;108.60;;;77.43;;
11425;SDS011;5769;47.998;7.788;2023-07-20T10:08:20;106.80;;;74.50;;
11425;SDS011;5769;47.998;7.788;2023-07-20T10:10:51;110.43;;;78.30;;
11425;SDS011;5769;47.998;7.788;2023-07-20T10:13:19;107.63;;;75.93;;
11425;SDS011;5769;47.998;7.788;2023-07-20T10:15:57;110.55;;;78.32;;
11425;SDS011;5769;47.998;7.788;2023-07-20T10:18:32;114.65;;;79.35;;
11425;SDS011;5769;47.998;7.788;2023-07-20T10:21:07;113.43;;;78.50;;
11425;SDS011;5769;47.998;7.788;2023-07-20T10:23:36;112.78;;;78.30;;
11425;SDS011;5769;47.998;7.788;2023-07-20T10:26:14;113.35;;;74.72;;
11425;SDS011;5769;47.998;7.788;2023-07-20T10:28:43;118.95;;;73.05;;
11425;SDS011;5769;47.998;7.788;2023-07-20T10:31:24;115.20;;;77.28;;
11425;SDS011;5769;47.998;7.788;2023-07-20T10:33:54;115.25;;;77.75;;
11425;SDS011;5769;47.998;7.788;2023-07-20T10:36:30;112.28;;;77.45;;
11425;SDS011;5769;47.998;7.788;2023-07-20T10:38:59;112.90;;;75.03;;
11425;SDS011;5769;47.998;7.788;2023-07-20T10:41:29;112.88;;;78.32;;
11425;SDS011;5769;47.998;7.788;2023-07-20T10:44:01;112.53;;;77.40;;
11425;SDS011;5769;47.998;7.788;2023-07-20T10:46:44;112.28;;;79.30;;
11425;SDS011;5769;47.998;7.788;2023-07-20T10:49:13;115.40;;;79.75;;
11425;SDS011;5769;47.998;7.788;2023-07-20T10:51:56;115.18;;;77.85;;
11425;SDS011;5769;47.998;7.788;2023-07-20T10:54:46;114.13;;;76.93;;
11425;SDS011;5769;47.998;7.788;2023-07-20T10:57:28;114.68;;;75.65;;
11425;SDS011;5769;47.998;7.788;2023-07-20T11:00:07;114.28;;;78.55;;
11425;SDS011;5769;47.998;7.788;2023-07-20T11:02:52;114.35;;;77.80;;
11425;SDS011;5769;47.998;7.788;2023-07-20T11:05:32;112.75;;;76.60;;
11425;SDS011;5769;47.998;7.788;2023-07-20T11:08:08;113.85;;;78.53;;
11425;SDS011;5769;47.998;7.788;2023-07-20T11:10:41;119.72;;;80.20;;
11425;SDS011;5769;47.998;7.788;2023-07-20T11:13:18;112.95;;;77.57;;
11425;SDS011;5769;47.998;7.788;2023-07-20T11:16:03;114.03;;;75.53;;
11425;SDS011;5769;47.998;7.788;2023-07-20T11:18:34;117.65;;;77.85;;
11425;SDS011;5769;47.998;7.788;2023-07-20T11:21:08;113.95;;;78.07;;
11425;SDS011;5769;47.998;7.788;2023-07-20T11:26:11;114.43;;;78.38;;
11425;SDS011;5769;47.998;7.788;2023-07-20T11:28:40;113.25;;;77.22;;
11425;SDS011;5769;47.998;7.788;2023-07-20T11:31:07;113.93;;;74.50;;
11425;SDS011;5769;47.998;7.788;2023-07-20T11:33:35;116.13;;;79.60;;
11425;SDS011;5769;47.998;7.788;2023-07-20T11:36:02;111.22;;;75.65;;
11425;SDS011;5769;47.998;7.788;2023-07-20T11:38:30;115.25;;;78.57;;
11425;SDS011;5769;47.998;7.788;2023-07-20T11:40:57;115.88;;;77.47;;
11425;SDS011;5769;47.998;7.788;2023-07-20T11:43:24;117.75;;;76.82;;
11425;SDS011;5769;47.998;7.788;2023-07-20T11:45:51;116.32;;;74.53;;
11425;SDS011;5769;47.998;7.788;2023-07-20T11:48:18;118.68;;;79.93;;
11425;SDS011;5769;47.998;7.788;2023-07-20T11:50:46;118.10;;;78.32;;
11425;SDS011;5769;47.998;7.788;2023-07-20T11:53:13;133.18;;;77.60;;
11425;SDS011;5769;47.998;7.788;2023-07-20T11:55:41;124.82;;;79.60;;
11425;SDS011;5769;47.998;7.788;2023-07-20T11:58:08;123.70;;;79.65;;
11425;SDS011;5769;47.998;7.788;2023-07-20T12:00:36;126.00;;;78.72;;
11425;SDS011;5769;47.998;7.788;2023-07-20T12:03:05;123.30;;;78.70;;
11425;SDS011;5769;47.998;7.788;2023-07-20T12:05:32;122.35;;;77.82;;
11425;SDS011;5769;47.998;7.788;2023-07-20T12:08:01;96.45;;;68.95;;
11425;SDS011;5769;47.998;7.788;2023-07-20T12:10:28;104.45;;;71.30;;
11425;SDS011;5769;47.998;7.788;2023-07-20T12:13:00;112.07;;;72.43;;
11425;SDS011;5769;47.998;7.788;2023-07-20T12:15:27;106.43;;;75.20;;
11425;SDS011;5769;47.998;7.788;2023-07-20T12:17:55;101.00;;;75.35;;
11425;SDS011;5769;47.998;7.788;2023-07-20T12:20:26;112.60;;;74.97;;
11425;SDS011;5769;47.998;7.788;2023-07-20T12:22:59;105.05;;;75.13;;
11425;SDS011;5769;47.998;7.788;2023-07-20T12:25:39;101.78;;;74.75;;
11425;SDS011;5769;47.998;7.788;2023-07-20T12:28:07;101.82;;;75.55;;
11425;SDS011;5769;47.998;7.788;2023-07-20T12:30:35;102.55;;;73.80;;
11425;SDS011;5769;47.998;7.788;2023-07-20T12:33:03;104.03;;;76.20;;
11425;SDS011;5769;47.998;7.788;2023-07-20T12:35:31;102.13;;;72.57;;
11425;SDS011;5769;47.998;7.788;2023-07-20T12:37:58;105.00;;;77.05;;
11425;SDS011;5769;47.998;7.788;2023-07-20T12:40:27;105.53;;;76.18;;
11425;SDS011;5769;47.998;7.788;2023-07-20T12:42:55;99.80;;;72.93;;
11425;SDS011;5769;47.998;7.788;2023-07-20T12:45:23;100.55;;;76.70;;
11425;SDS011;5769;47.998;7.788;2023-07-20T12:47:50;98.75;;;74.63;;
11425;SDS011;5769;47.998;7.788;2023-07-20T12:50:17;96.80;;;75.43;;
11425;SDS011;5769;47.998;7.788;2023-07-20T12:52:44;98.68;;;74.63;;
11425;SDS011;5769;47.998;7.788;2023-07-20T12:55:10;102.50;;;74.25;;
11425;SDS011;5769;47.998;7.788;2023-07-20T12:57:40;99.85;;;73.22;;
11425;SDS011;5769;47.998;7.788;2023-07-20T13:00:08;102.60;;;75.32;;
11425;SDS011;5769;47.998;7.788;2023-07-20T13:02:37;105.78;;;75.03;;
11425;SDS011;5769;47.998;7.788;2023-07-20T13:05:04;100.60;;;71.18;;
11425;SDS011;5769;47.998;7.788;2023-07-20T13:07:32;100.05;;;74.97;;
11425;SDS011;5769;47.998;7.788;2023-07-20T13:10:00;97.95;;;74.43;;
11425;SDS011;5769;47.998;7.788;2023-07-20T13:12:29;98.40;;;74.75;;
11425;SDS011;5769;47.998;7.788;2023-07-20T13:15:02;103.43;;;75.80;;
11425;SDS011;5769;47.998;7.788;2023-07-20T13:17:30;105.50;;;74.30;;
11425;SDS011;5769;47.998;7.788;2023-07-20T13:19:57;38.78;;;29.40;;
11425;SDS011;5769;47.998;7.788;2023-07-20T13:22:24;17.25;;;10.90;;
11425;SDS011;5769;47.998;7.788;2023-07-20T13:24:52;7.40;;;6.70;;
11425;SDS011;5769;47.998;7.788;2023-07-20T13:27:19;6.30;;;5.63;;
11425;SDS011;5769;47.998;7.788;2023-07-20T13:29:46;6.20;;;5.45;;
11425;SDS011;5769;47.998;7.788;2023-07-20T13:51:59;4.90;;;3.40;;
11425;SDS011;5769;47.998;7.788;2023-07-20T13:54:26;5.68;;;3.83;;
11425;SDS011;5769;47.998;7.788;2023-07-20T13:56:54;121.55;;;73.05;;
11425;SDS011;5769;47.998;7.788;2023-07-20T13:59:22;2.97;;;1.00;;
11425;SDS011;5769;47.998;7.788;2023-07-20T14:01:50;163.02;;;65.55;;
11425;SDS011;5769;47.998;7.788;2023-07-20T14:04:17;3.08;;;0.82;;
11425;SDS011;5769;47.998;7.788;2023-07-20T14:06:46;3.22;;;0.82;;
11425;SDS011;5769;47.998;7.788;2023-07-20T14:09:15;2.47;;;0.70;;
11425;SDS011;5769;47.998;7.788;2023-07-20T14:11:42;2.28;;;0.77;;
11425;SDS011;5769;47.998;7.788;2023-07-20T14:14:10;1.67;;;0.65;;
11425;SDS011;5769;47.998;7.788;2023-07-20T14:16:38;3.92;;;0.80;;
11425;SDS011;5769;47.998;7.788;2023-07-20T14:19:07;4.43;;;0.90;;
11425;SDS011;5769;47.998;7.788;2023-07-20T14:21:35;2.17;;;0.82;;
11425;SDS011;5769;47.998;7.788;2023-07-20T14:24:06;2.78;;;0.90;;
11425;SDS011;5769;47.998;7.788;2023-07-20T14:26:38;2.47;;;0.70;;
11425;SDS011;5769;47.998;7.788;2023-07-20T14:29:07;1.98;;;0.88;;
11425;SDS011;5769;47.998;7.788;2023-07-20T14:31:37;4.32;;;0.80;;
11425;SDS011;5769;47.998;7.788;2023-07-20T14:34:07;2.22;;;0.60;;
11425;SDS011;5769;47.998;7.788;2023-07-20T14:36:35;3.65;;;1.08;;
11425;SDS011;5769;47.998;7.788;2023-07-20T14:39:06;4.20;;;1.00;;
11425;SDS011;5769;47.998;7.788;2023-07-20T14:41:35;2.57;;;0.83;;
11425;SDS011;5769;47.998;7.788;2023-07-20T14:44:05;2.20;;;0.70;;
11425;SDS011;5769;47.998;7.788;2023-07-20T14:46:32;3.83;;;0.88;;
11425;SDS011;5769;47.998;7.788;2023-07-20T14:49:00;2.38;;;0.70;;
11425;SDS011;5769;47.998;7.788;2023-07-20T14:51:27;2.45;;;0.70;;
11425;SDS011;5769;47.998;7.788;2023-07-20T14:53:58;3.30;;;1.00;;
11425;SDS011;5769;47.998;7.788;2023-07-20T14:56:28;1.13;;;0.70;;
11425;SDS011;5769;47.998;7.788;2023-07-20T14:58:54;2.50;;;0.60;;
11425;SDS011;5769;47.998;7.788;2023-07-20T15:01:23;3.50;;;0.85;;
11425;SDS011;5769;47.998;7.788;2023-07-20T15:03:52;2.40;;;1.00;;
11425;SDS011;5769;47.998;7.788;2023-07-20T15:06:26;2.95;;;0.80;;
11425;SDS011;5769;47.998;7.788;2023-07-20T15:08:58;1.38;;;0.70;;
11425;SDS011;5769;47.998;7.788;2023-07-20T15:11:29;1.60;;;0.70;;